Terminal Aerodrome Forecast
Issued by NWS Wilmington, OH

Current Version | Previous Version | Graphics & Text | Print | Product List | Glossary On
Versions: 1 2 3 4 5 6 7 8 9 10 11 12 13 14 15 16 17 18 19 20 21 22 23 24 25
000
FTUS41 KILN 181500 AAA
TAFDAY
TAF AMD
KDAY 181507Z 1815/1912 31012G20KT P6SM VCSH OVC035
     FM181700 31012G20KT P6SM VCSH OVC025
      TEMPO 1818/1821 -SHRA OVC018
     FM182300 32010G18KT P6SM OVC015
     FM190200 31008KT P6SM BKN015
     FM190900 30004KT P6SM FEW025=

USA.gov is the U.S. government's official web portal to all federal, state and local government web resources and services.